Time;durP1;ratioP1;P1;durP2;ratioP2;P2;SDS_P1;SDS_P2;PMS_P1;PMS_P2;Temp;Humidity;BMP_temperature;BMP_pressure;BME280_temperature;BME280_humidity;BME280_pressure;Samples;Min_cycle;Max_cycle;Signal;HPM_P1;HPM_P2
2021/05/27 00:00:29;;;;;;;7.03;5.18;;;17.20;82.50;;;;;;6283725;22;20024;-89
2021/05/27 00:02:56;;;;;;;5.03;4.53;;;17.10;82.60;;;;;;6291089;22;19999;-89
2021/05/27 00:05:22;;;;;;;5.72;4.72;;;17.10;82.60;;;;;;6266699;22;20005;-88
2021/05/27 00:07:50;;;;;;;6.20;4.28;;;17.00;82.70;;;;;;6277956;22;20008;-90
2021/05/27 00:10:19;;;;;;;6.95;4.53;;;17.00;82.60;;;;;;6276350;22;20003;-89
2021/05/27 00:12:45;;;;;;;5.45;4.40;;;17.00;82.80;;;;;;6252868;22;20004;-89
2021/05/27 00:15:14;;;;;;;6.65;4.55;;;16.90;82.80;;;;;;6252633;22;20004;-89
2021/05/27 00:17:43;;;;;;;4.72;3.97;;;16.90;82.80;;;;;;6257893;22;20003;-89
2021/05/27 00:20:11;;;;;;;4.88;3.90;;;16.90;82.90;;;;;;6268195;22;20008;-89
2021/05/27 00:22:38;;;;;;;4.82;3.88;;;16.80;82.80;;;;;;6275372;22;19984;-89
2021/05/27 00:25:06;;;;;;;4.15;3.75;;;16.80;83.00;;;;;;6266808;22;20059;-88
2021/05/27 00:27:32;;;;;;;4.78;4.25;;;16.80;83.10;;;;;;6278128;22;20007;-89
2021/05/27 00:29:57;;;;;;;4.68;3.85;;;16.70;83.20;;;;;;6302048;22;20011;-89
2021/05/27 00:32:23;;;;;;;5.13;3.60;;;16.70;83.30;;;;;;6265736;22;20053;-88
2021/05/27 00:34:49;;;;;;;7.65;4.97;;;16.70;83.50;;;;;;6267899;22;20000;-88
2021/05/27 00:37:15;;;;;;;5.57;4.88;;;16.60;83.60;;;;;;6262382;22;20004;-88
2021/05/27 00:39:41;;;;;;;6.15;4.68;;;16.60;83.90;;;;;;6254089;22;20007;-88
2021/05/27 00:42:09;;;;;;;6.60;4.75;;;16.60;84.00;;;;;;6252562;22;20007;-88
2021/05/27 00:44:35;;;;;;;6.22;4.70;;;16.60;84.30;;;;;;6252095;22;20007;-88
2021/05/27 00:47:06;;;;;;;7.20;4.28;;;16.50;84.20;;;;;;6279121;22;20000;-89
2021/05/27 00:49:33;;;;;;;5.32;4.15;;;16.50;84.40;;;;;;6252607;22;20012;-89
2021/05/27 00:51:59;;;;;;;5.28;3.97;;;16.50;84.50;;;;;;6251679;22;20078;-88
2021/05/27 00:54:25;;;;;;;4.50;3.90;;;16.40;84.50;;;;;;6252026;22;20428;-89
2021/05/27 00:56:52;;;;;;;4.50;3.90;;;16.40;84.50;;;;;;6252018;22;20010;-89
2021/05/27 00:59:24;;;;;;;4.10;3.70;;;16.40;84.90;;;;;;6279226;22;20042;-88
2021/05/27 01:01:51;;;;;;;4.00;3.60;;;16.50;85.00;;;;;;6251999;22;20399;-89
2021/05/27 01:04:19;;;;;;;4.63;3.85;;;16.40;84.90;;;;;;6252032;22;20011;-89
2021/05/27 01:06:47;;;;;;;5.43;4.18;;;16.40;85.30;;;;;;6251897;22;20000;-88
2021/05/27 01:09:16;;;;;;;3.63;3.30;;;16.40;85.30;;;;;;6251633;22;20053;-88
2021/05/27 01:11:41;;;;;;;4.25;3.80;;;16.40;85.10;;;;;;6252431;22;20011;-88
2021/05/27 01:17:07;;;;;;;4.10;3.70;;;16.40;85.30;;;;;;6221919;22;20006;-88
2021/05/27 01:19:33;;;;;;;4.80;3.85;;;16.30;85.40;;;;;;6251648;22;20007;-88
2021/05/27 01:21:59;;;;;;;4.00;3.40;;;16.30;85.30;;;;;;6251795;22;20043;-88
2021/05/27 01:24:32;;;;;;;3.45;3.15;;;16.30;85.30;;;;;;6251912;22;20000;-89
2021/05/27 01:27:00;;;;;;;4.95;3.33;;;16.40;85.30;;;;;;6251817;22;19999;-89
2021/05/27 01:29:26;;;;;;;3.55;2.88;;;16.30;85.40;;;;;;6251522;22;20003;-88
2021/05/27 01:31:52;;;;;;;3.58;2.78;;;16.40;85.40;;;;;;6251838;22;20335;-89
2021/05/27 01:34:17;;;;;;;3.45;3.15;;;16.30;85.30;;;;;;6278559;22;20003;-88
2021/05/27 01:36:47;;;;;;;3.22;2.78;;;16.40;85.40;;;;;;6251667;22;20370;-88
2021/05/27 01:39:13;;;;;;;3.50;2.97;;;16.40;85.40;;;;;;6251512;22;20004;-88
2021/05/27 01:41:40;;;;;;;3.40;3.10;;;16.40;85.40;;;;;;6251613;22;20023;-88
2021/05/27 01:44:06;;;;;;;3.92;3.22;;;16.40;85.50;;;;;;6251832;22;20420;-89
2021/05/27 01:46:31;;;;;;;4.03;3.15;;;16.40;85.50;;;;;;6253482;22;20042;-89
2021/05/27 01:48:57;;;;;;;4.10;3.70;;;16.40;85.50;;;;;;6277879;22;19984;-88
2021/05/27 01:51:23;;;;;;;4.13;3.40;;;16.40;85.60;;;;;;6278474;22;19999;-89
2021/05/27 01:53:49;;;;;;;3.50;3.20;;;16.40;85.60;;;;;;6277990;22;20014;-88
2021/05/27 01:56:15;;;;;;;4.65;3.42;;;16.40;85.60;;;;;;6304925;22;20034;-89
2021/05/27 01:58:48;;;;;;;3.97;3.58;;;16.40;85.60;;;;;;6255851;22;20091;-89
2021/05/27 02:01:14;;;;;;;3.60;3.10;;;16.40;85.60;;;;;;6251558;22;20039;-88
2021/05/27 02:03:39;;;;;;;3.65;3.28;;;16.40;85.50;;;;;;6251525;22;20069;-88
2021/05/27 02:06:05;;;;;;;5.45;3.10;;;16.40;85.50;;;;;;6250991;22;20000;-88
2021/05/27 02:08:33;;;;;;;4.13;3.25;;;16.40;85.60;;;;;;6251466;22;20087;-89
2021/05/27 02:10:59;;;;;;;3.60;3.10;;;16.50;85.70;;;;;;6251407;22;20000;-89
2021/05/27 02:13:25;;;;;;;4.45;3.58;;;16.40;85.70;;;;;;6251139;22;20082;-88
2021/05/27 02:15:50;;;;;;;3.17;2.88;;;16.50;85.90;;;;;;6252841;22;20120;-89
2021/05/27 02:18:23;;;;;;;4.18;3.63;;;16.40;86.00;;;;;;6278388;22;19996;-88
2021/05/27 02:20:49;;;;;;;3.60;3.20;;;16.40;86.10;;;;;;6251303;22;20095;-88
2021/05/27 02:23:15;;;;;;;4.30;3.80;;;16.50;86.30;;;;;;6253379;22;20252;-89
2021/05/27 02:25:41;;;;;;;4.07;3.67;;;16.50;86.40;;;;;;6254165;22;20004;-89
2021/05/27 02:28:06;;;;;;;3.63;3.30;;;16.50;86.50;;;;;;6253885;22;20392;-89
2021/05/27 02:30:32;;;;;;;5.07;3.67;;;16.60;86.40;;;;;;6252637;22;20012;-89
2021/05/27 02:32:59;;;;;;;3.38;3.08;;;16.60;86.40;;;;;;6251241;22;20000;-88
2021/05/27 02:35:25;;;;;;;4.05;3.60;;;16.70;86.60;;;;;;6251704;22;20007;-89
2021/05/27 02:37:51;;;;;;;4.53;3.60;;;16.70;86.50;;;;;;6251725;22;20105;-89
2021/05/27 02:40:16;;;;;;;5.20;3.53;;;16.80;86.40;;;;;;6251390;22;20011;-89
2021/05/27 02:42:42;;;;;;;5.35;3.95;;;16.80;86.30;;;;;;6251225;22;20082;-89
2021/05/27 02:45:09;;;;;;;5.32;3.78;;;16.90;86.20;;;;;;6278016;22;20087;-88
2021/05/27 02:47:34;;;;;;;4.70;3.90;;;17.00;86.10;;;;;;6251008;22;20003;-89
2021/05/27 02:50:00;;;;;;;4.78;4.30;;;17.00;86.10;;;;;;6250948;22;20015;-88
2021/05/27 02:52:26;;;;;;;5.30;3.80;;;17.00;86.00;;;;;;6250997;22;20000;-89
2021/05/27 02:54:52;;;;;;;4.57;3.92;;;17.10;85.90;;;;;;6250972;22;20015;-88
2021/05/27 02:57:18;;;;;;;4.65;3.90;;;17.20;85.80;;;;;;6255306;22;20083;-89
2021/05/27 02:59:43;;;;;;;3.70;3.40;;;17.20;85.70;;;;;;6278164;22;19992;-88
2021/05/27 03:02:12;;;;;;;4.20;3.80;;;17.20;85.60;;;;;;6250992;22;20027;-88
2021/05/27 03:04:38;;;;;;;3.30;3.00;;;17.30;85.50;;;;;;6251257;22;20000;-89
2021/05/27 03:07:03;;;;;;;6.07;3.97;;;17.30;85.40;;;;;;6250515;22;20011;-90
2021/05/27 03:09:29;;;;;;;4.35;3.83;;;17.40;85.30;;;;;;6251022;22;19996;-89
2021/05/27 03:11:58;;;;;;;4.88;3.70;;;17.40;85.20;;;;;;6251037;22;20000;-89
2021/05/27 03:14:24;;;;;;;6.78;3.92;;;17.40;85.20;;;;;;6250293;22;20000;-89
2021/05/27 03:16:49;;;;;;;5.05;4.25;;;17.40;85.10;;;;;;6250606;22;20057;-89
2021/05/27 03:19:15;;;;;;;6.13;4.82;;;17.40;85.20;;;;;;6251278;22;20007;-89
2021/05/27 03:21:41;;;;;;;7.63;5.28;;;17.40;85.10;;;;;;6251072;22;20016;-88
2021/05/27 03:24:07;;;;;;;8.98;4.65;;;17.50;85.20;;;;;;6252104;22;20067;-89
2021/05/27 03:26:33;;;;;;;5.68;3.70;;;17.50;85.20;;;;;;6255089;22;20028;-89
2021/05/27 03:28:58;;;;;;;6.15;4.25;;;17.50;85.70;;;;;;6282745;22;20070;-88
2021/05/27 03:31:24;;;;;;;4.13;3.42;;;17.50;85.10;;;;;;6256246;22;20094;-89
2021/05/27 03:33:50;;;;;;;6.93;4.55;;;17.50;85.10;;;;;;6263489;22;20003;-89
2021/05/27 03:36:16;;;;;;;6.20;4.10;;;17.50;85.10;;;;;;6276673;22;20026;-88
2021/05/27 03:38:42;;;;;;;5.63;4.38;;;17.60;85.20;;;;;;6277139;22;19992;-90
2021/05/27 03:41:08;;;;;;;4.57;4.10;;;17.60;85.20;;;;;;6277949;22;20050;-88
2021/05/27 03:43:34;;;;;;;4.78;4.05;;;17.60;85.20;;;;;;6275051;22;20133;-89
2021/05/27 03:46:00;;;;;;;5.57;4.50;;;17.60;85.20;;;;;;6251659;22;20000;-89
2021/05/27 03:48:26;;;;;;;5.80;4.80;;;17.60;85.20;;;;;;6250630;22;20079;-89
2021/05/27 03:50:52;;;;;;;6.60;4.55;;;17.70;85.20;;;;;;6251232;22;20047;-89
2021/05/27 03:53:18;;;;;;;8.18;5.15;;;17.70;85.20;;;;;;6250926;22;20000;-89
2021/05/27 03:55:46;;;;;;;8.25;5.80;;;17.70;85.20;;;;;;6250824;22;20103;-89
2021/05/27 04:01:01;;;;;;;6.88;4.45;;;17.80;85.30;;;;;;6252851;22;20012;-90
2021/05/27 04:03:27;;;;;;;7.30;4.70;;;17.80;85.20;;;;;;6263551;22;20000;-88
2021/05/27 04:08:41;;;;;;;6.78;4.75;;;17.90;85.10;;;;;;6290942;22;20038;-90
2021/05/27 04:11:07;;;;;;;6.93;5.13;;;17.90;85.00;;;;;;6272146;22;20075;-87
2021/05/27 04:13:33;;;;;;;7.35;4.90;;;17.90;85.00;;;;;;6296786;22;19999;-89
2021/05/27 04:15:58;;;;;;;5.63;4.90;;;17.90;85.00;;;;;;6266258;22;20004;-88
2021/05/27 04:18:25;;;;;;;6.03;5.35;;;18.00;85.00;;;;;;6265697;22;20000;-89
2021/05/27 04:20:54;;;;;;;6.65;4.82;;;18.00;84.80;;;;;;6260097;22;20198;-89
2021/05/27 04:23:39;;;;;;;5.15;4.38;;;18.00;84.80;;;;;;6250883;22;20012;-89
2021/05/27 04:26:11;;;;;;;5.28;4.13;;;18.10;84.70;;;;;;6251046;22;19999;-89
2021/05/27 04:28:37;;;;;;;6.75;4.40;;;18.20;84.70;;;;;;6251578;22;20004;-89
2021/05/27 04:31:10;;;;;;;7.30;4.90;;;18.30;84.60;;;;;;6252969;22;20015;-89
2021/05/27 04:33:46;;;;;;;4.82;4.32;;;18.30;84.40;;;;;;6252909;22;20034;-89
2021/05/27 04:36:17;;;;;;;10.50;4.90;;;18.50;84.30;;;;;;6278636;22;20504;-90
2021/05/27 04:38:46;;;;;;;5.70;4.68;;;18.60;84.30;;;;;;6252896;22;20015;-90
2021/05/27 04:41:13;;;;;;;5.40;4.38;;;18.70;84.00;;;;;;6253540;22;20018;-89
2021/05/27 04:43:40;;;;;;;9.70;5.07;;;18.80;83.60;;;;;;6279512;22;19996;-89
2021/05/27 04:46:11;;;;;;;5.95;4.47;;;19.00;83.40;;;;;;6252703;22;20493;-89
2021/05/27 04:48:37;;;;;;;8.07;4.53;;;19.20;83.10;;;;;;6253053;22;19999;-91
2021/05/27 04:51:04;;;;;;;5.78;4.20;;;19.40;82.60;;;;;;6252060;22;20075;-90
2021/05/27 04:53:32;;;;;;;6.35;4.18;;;19.50;82.00;;;;;;6251983;22;20075;-90
2021/05/27 04:56:03;;;;;;;5.30;4.22;;;19.70;81.40;;;;;;6252041;22;20023;-91
2021/05/27 04:58:30;;;;;;;6.03;4.15;;;19.90;80.90;;;;;;6252453;22;20095;-90
2021/05/27 05:00:58;;;;;;;4.20;3.80;;;20.00;80.30;;;;;;6252724;22;20335;-91
2021/05/27 05:03:24;;;;;;;4.68;4.05;;;20.20;79.80;;;;;;6252702;22;20034;-91
2021/05/27 05:05:50;;;;;;;8.18;4.28;;;20.40;79.10;;;;;;6252253;22;20000;-91
2021/05/27 05:08:16;;;;;;;5.25;4.38;;;20.50;79.00;;;;;;6253768;22;20007;-90
2021/05/27 05:10:49;;;;;;;5.00;4.43;;;20.60;77.90;;;;;;6252887;22;20007;-90
2021/05/27 05:13:20;;;;;;;6.45;4.97;;;20.70;77.60;;;;;;6282286;22;20106;-90
2021/05/27 05:15:51;;;;;;;6.75;5.50;;;20.90;77.20;;;;;;6274091;22;20023;-90
2021/05/27 05:18:17;;;;;;;6.28;5.07;;;21.00;76.90;;;;;;6269200;22;20019;-91
2021/05/27 05:20:56;;;;;;;;;;;;;;;;;;;;;
2021/05/27 05:23:24;;;;;;;6.85;6.18;;;21.10;75.80;;;;;;6284397;22;20030;-91
2021/05/27 05:25:50;;;;;;;16.48;9.10;;;21.30;75.50;;;;;;6254549;22;19999;-90
2021/05/27 05:28:16;;;;;;;10.07;8.88;;;21.40;75.10;;;;;;6281408;22;20007;-92
2021/05/27 05:30:45;;;;;;;12.25;10.25;;;21.50;74.60;;;;;;6254551;22;20015;-91
2021/05/27 05:33:20;;;;;;;13.43;9.63;;;21.60;73.90;;;;;;6257280;22;20102;-91
2021/05/27 05:35:51;;;;;;;12.30;10.48;;;21.70;73.70;;;;;;6264275;22;20034;-90
2021/05/27 05:38:20;;;;;;;12.75;9.88;;;21.70;73.00;;;;;;6264969;22;19999;-91
2021/05/27 05:41:26;;;;;;;10.55;9.25;;;21.80;72.80;;;;;;6266228;22;20012;-90
2021/05/27 05:44:00;;;;;;;14.38;11.68;;;21.90;72.00;;;;;;6265942;22;20010;-90
2021/05/27 05:46:45;;;;;;;11.32;9.70;;;22.00;72.00;;;;;;6264184;22;20427;-91
2021/05/27 05:49:13;;;;;;;14.90;10.73;;;22.10;71.30;;;;;;6255799;22;20077;-90
2021/05/27 05:51:42;;;;;;;17.90;12.85;;;22.20;71.50;;;;;;6254821;22;20051;-91
2021/05/27 05:54:08;;;;;;;15.27;12.57;;;22.30;71.20;;;;;;6281807;22;20000;-90
2021/05/27 05:56:46;;;;;;;21.92;14.77;;;22.40;70.80;;;;;;6281472;22;20003;-91
2021/05/27 05:59:36;;;;;;;;;;;;;;;;;;;;;
2021/05/27 06:02:18;;;;;;;;;;;;;;;;;;;;;
2021/05/27 06:04:53;;;;;;;24.23;14.48;;;22.60;69.70;;;;;;6160731;22;20001;-90
2021/05/27 06:07:39;;;;;;;21.23;14.82;;;22.60;69.30;;;;;;6281119;22;19992;-91
2021/05/27 06:10:18;;;;;;;20.17;13.25;;;22.70;69.00;;;;;;6279212;22;20011;-90
2021/05/27 06:12:47;;;;;;;15.50;11.25;;;22.80;68.80;;;;;;6252302;22;20022;-90
2021/05/27 06:15:34;;;;;;;;;;;;;;;;;;;;;
2021/05/27 06:18:10;;;;;;;18.33;11.30;;;22.90;68.40;;;;;;6279111;22;20088;-91
2021/05/27 06:20:50;;;;;;;15.32;10.63;;;23.10;68.30;;;;;;6252374;22;20004;-90
2021/05/27 06:26:25;;;;;;;12.98;9.85;;;23.20;67.60;;;;;;6253822;22;20004;-90
2021/05/27 06:29:03;;;;;;;16.88;11.48;;;23.40;67.40;;;;;;6256833;22;20003;-91
2021/05/27 06:31:39;;;;;;;19.92;12.25;;;23.50;67.00;;;;;;6252975;22;20003;-91
2021/05/27 06:37:42;;;;;;;;;;;;;;;;;;;;;
2021/05/27 06:40:19;;;;;;;21.02;12.25;;;23.70;66.40;;;;;;6278725;22;20086;-91
2021/05/27 06:43:19;;;;;;;;;;;;;;;;;;;;;
2021/05/27 06:46:21;;;;;;;22.17;13.38;;;23.90;65.90;;;;;;6262274;22;20090;-91
2021/05/27 06:48:46;;;;;;;18.83;12.65;;;23.90;65.70;;;;;;6270526;22;20004;-91
2021/05/27 06:51:28;;;;;;;19.08;11.98;;;24.00;65.60;;;;;;6251050;22;20023;-91
2021/05/27 06:54:10;;;;;;;11.32;9.07;;;24.00;65.50;;;;;;6251929;22;20091;-91
2021/05/27 06:57:04;;;;;;;16.75;10.77;;;24.10;65.40;;;;;;6250843;22;20012;-91
2021/05/27 06:59:38;;;;;;;18.45;11.68;;;24.20;65.20;;;;;;6251071;22;20014;-91
2021/05/27 07:02:17;;;;;;;;;;;;;;;;;;;;;
2021/05/27 07:05:25;;;;;;;;;;;;;;;;;;;;;
2021/05/27 07:08:06;;;;;;;15.18;11.30;;;24.30;63.90;;;;;;6278286;22;20082;-91
2021/05/27 07:10:34;;;;;;;21.67;11.32;;;24.40;64.10;;;;;;6251245;22;20042;-91
2021/05/27 07:13:28;;;;;;;;;;;;;;;;;;;;;
2021/05/27 07:16:28;;;;;;;15.80;10.45;;;24.40;63.60;;;;;;6278408;22;20070;-91
2021/05/27 07:19:26;;;;;;;;;;;;;;;;;;;;;
2021/05/27 07:22:20;;;;;;;7.93;6.35;;;24.50;63.10;;;;;;6278253;22;20087;-91
2021/05/27 07:25:17;;;;;;;7.70;5.30;;;24.50;63.50;;;;;;6250888;22;20072;-91
2021/05/27 07:27:50;;;;;;;6.57;5.20;;;24.60;63.60;;;;;;6275298;22;20069;-91
2021/05/27 07:30:33;;;;;;;;;;;;;;;;;;;;;
2021/05/27 07:33:02;;;;;;;5.97;4.78;;;24.90;63.10;;;;;;6278071;22;20067;-92
2021/05/27 07:35:40;;;;;;;5.10;4.30;;;25.00;62.80;;;;;;6251161;22;20038;-90
2021/05/27 07:38:12;;;;;;;4.45;3.63;;;25.10;62.20;;;;;;6250877;22;20315;-90
2021/05/27 07:40:45;;;;;;;4.00;3.53;;;25.10;60.80;;;;;;6250930;22;20027;-91
2021/05/27 07:43:42;;;;;;;;;;;;;;;;;;;;;
2021/05/27 07:46:11;;;;;;;7.50;3.50;;;25.20;61.30;;;;;;6280899;22;20023;-91
2021/05/27 07:48:47;;;;;;;4.95;3.42;;;25.20;61.30;;;;;;6251402;22;20465;-91
2021/05/27 07:51:31;;;;;;;;;;;;;;;;;;;;;
2021/05/27 07:54:06;;;;;;;5.80;4.75;;;25.30;60.70;;;;;;6278960;22;20083;-91
2021/05/27 07:56:43;;;;;;;7.20;4.68;;;25.40;60.60;;;;;;6273247;22;20014;-90
2021/05/27 07:59:09;;;;;;;5.60;3.50;;;25.50;60.40;;;;;;6302027;22;20016;-90
2021/05/27 08:01:37;;;;;;;5.00;3.50;;;25.50;59.80;;;;;;6273384;22;20012;-91
2021/05/27 08:04:23;;;;;;;5.78;4.30;;;25.50;59.30;;;;;;6275424;22;20050;-91
2021/05/27 08:07:09;;;;;;;5.25;4.00;;;25.50;58.60;;;;;;6278996;22;19995;-93
2021/05/27 08:09:45;;;;;;;;;;;;;;;;;;;;;
2021/05/27 08:12:13;;;;;;;4.18;3.15;;;25.60;59.40;;;;;;6281383;22;20102;-91
2021/05/27 08:14:50;;;;;;;4.28;3.58;;;25.60;59.20;;;;;;6253851;22;20002;-91
2021/05/27 08:20:10;;;;;;;4.45;3.60;;;25.70;58.60;;;;;;6257563;22;19999;-90
2021/05/27 08:22:55;;;;;;;;;;;;;;;;;;;;;
2021/05/27 08:25:24;;;;;;;3.15;2.85;;;25.90;58.20;;;;;;6280086;22;20082;-89
2021/05/27 08:27:58;;;;;;;3.45;3.00;;;25.90;58.10;;;;;;6252906;22;20003;-91
2021/05/27 08:30:26;;;;;;;3.28;2.97;;;25.90;58.00;;;;;;6252894;22;20012;-89
2021/05/27 08:33:48;;;;;;;;;;;;;;;;;;;;;
2021/05/27 08:36:17;;;;;;;3.78;2.80;;;26.20;57.70;;;;;;6279842;22;20070;-88
2021/05/27 08:38:44;;;;;;;2.92;2.50;;;26.20;56.60;;;;;;6252057;22;19996;-88
2021/05/27 08:41:33;;;;;;;3.30;3.00;;;26.20;56.60;;;;;;6255114;22;20403;-90
2021/05/27 08:44:02;;;;;;;3.10;2.80;;;26.20;56.60;;;;;;6256265;22;19996;-89
2021/05/27 08:46:40;;;;;;;;;;;;;;;;;;;;;
2021/05/27 08:49:16;;;;;;;;;;;;;;;;;;;;;
2021/05/27 08:51:59;;;;;;;3.47;2.90;;;26.60;55.10;;;;;;6279833;22;20107;-90
2021/05/27 08:54:28;;;;;;;;;;;26.50;53.00;;;;;;6252875;22;20114;-90
2021/05/27 08:56:56;;;;;;;2.38;2.10;;;26.40;54.20;;;;;;6252244;22;19938;-90
2021/05/27 08:59:25;;;;;;;2.65;2.45;;;26.40;55.60;;;;;;6252550;22;20034;-90
2021/05/27 09:02:22;;;;;;;5.60;3.60;;;26.60;55.80;;;;;;6251858;22;20007;-90
2021/05/27 09:05:22;;;;;;;5.45;4.18;;;26.90;56.20;;;;;;6258604;22;20125;-91
2021/05/27 09:08:02;;;;;;;;;;;;;;;;;;;;;
2021/05/27 09:10:56;;;;;;;;;;;;;;;;;;;;;
2021/05/27 09:14:01;;;;;;;3.60;3.30;;;27.10;55.90;;;;;;6278963;22;20075;-89
2021/05/27 09:16:47;;;;;;;3.53;3.22;;;27.20;56.20;;;;;;6253780;22;19999;-91
2021/05/27 09:19:31;;;;;;;;;;;;;;;;;;;;;
2021/05/27 09:25:48;;;;;;;6.07;3.33;;;27.10;56.30;;;;;;6259699;22;20003;-92
2021/05/27 09:28:34;;;;;;;;;;;;;;;;;;;;;
2021/05/27 09:31:05;;;;;;;3.88;3.50;;;27.10;55.80;;;;;;6279548;22;20079;-89
2021/05/27 09:33:42;;;;;;;4.68;3.15;;;27.10;55.90;;;;;;6251077;22;19996;-89
2021/05/27 09:36:13;;;;;;;3.85;3.38;;;27.10;55.70;;;;;;6251254;22;20386;-88
2021/05/27 09:38:47;;;;;;;3.45;3.15;;;27.00;55.60;;;;;;6250877;22;20007;-89
2021/05/27 09:41:24;;;;;;;4.20;3.85;;;26.90;55.50;;;;;;6277409;22;20023;-89
2021/05/27 09:44:17;;;;;;;3.60;3.30;;;26.80;55.20;;;;;;6252543;22;20004;-89
2021/05/27 09:46:51;;;;;;;3.63;3.33;;;26.70;55.80;;;;;;6227873;22;20419;-89
2021/05/27 09:49:22;;;;;;;4.07;3.20;;;26.60;55.80;;;;;;6280115;22;19999;-89
2021/05/27 09:52:12;;;;;;;3.97;3.40;;;26.50;56.20;;;;;;6283506;22;20015;-89
2021/05/27 09:54:55;;;;;;;4.10;3.15;;;26.40;56.20;;;;;;6260984;22;20007;-87
2021/05/27 09:57:26;;;;;;;3.88;2.97;;;26.50;56.40;;;;;;6285639;22;19995;-88
2021/05/27 09:59:52;;;;;;;3.47;3.17;;;26.50;56.40;;;;;;6252855;22;20403;-89
2021/05/27 10:02:19;;;;;;;4.20;3.60;;;26.50;56.20;;;;;;6253345;22;20089;-88
2021/05/27 10:04:57;;;;;;;3.50;3.20;;;26.50;56.10;;;;;;6251542;22;20011;-89
2021/05/27 10:07:44;;;;;;;3.67;3.33;;;26.40;56.10;;;;;;6276587;22;20004;-88
2021/05/27 10:10:12;;;;;;;4.40;3.78;;;26.40;56.40;;;;;;6277595;22;20419;-88
2021/05/27 10:12:44;;;;;;;3.47;3.17;;;26.40;56.60;;;;;;6250880;22;20006;-89
2021/05/27 10:15:19;;;;;;;5.40;3.28;;;26.50;56.50;;;;;;6251049;22;20008;-90
2021/05/27 10:17:59;;;;;;;;;;;;;;;;;;;;;
2021/05/27 10:20:28;;;;;;;4.40;3.78;;;26.60;56.50;;;;;;6304423;22;20003;-89
2021/05/27 10:23:18;;;;;;;3.65;3.30;;;26.80;56.40;;;;;;6304543;22;20000;-91
2021/05/27 10:26:04;;;;;;;3.83;3.40;;;26.80;55.90;;;;;;6276726;22;20030;-90
2021/05/27 10:28:56;;;;;;;3.40;3.10;;;26.90;56.20;;;;;;6304326;22;20075;-90
2021/05/27 10:31:26;;;;;;;3.42;3.13;;;27.00;56.20;;;;;;6261939;22;20023;-88
2021/05/27 10:33:54;;;;;;;4.28;3.30;;;27.20;55.90;;;;;;6250360;22;20007;-87
2021/05/27 10:36:23;;;;;;;4.93;3.08;;;27.30;55.50;;;;;;6249951;22;20470;-87
2021/05/27 10:38:51;;;;;;;4.63;3.35;;;27.30;55.30;;;;;;6225120;22;20008;-88
2021/05/27 10:41:32;;;;;;;3.67;3.38;;;27.40;55.40;;;;;;6249541;22;20034;-88
2021/05/27 10:44:02;;;;;;;3.28;3.00;;;27.40;55.10;;;;;;6275683;22;20042;-88
2021/05/27 10:46:32;;;;;;;3.47;2.70;;;27.50;55.10;;;;;;6275371;22;19999;-88
2021/05/27 10:48:58;;;;;;;3.05;2.85;;;27.50;55.00;;;;;;6277173;22;20000;-88
2021/05/27 10:54:07;;;;;;;2.55;2.35;;;27.70;54.80;;;;;;6287342;22;20118;-90
2021/05/27 10:56:40;;;;;;;3.22;2.95;;;27.80;54.70;;;;;;6250586;22;20015;-88
2021/05/27 10:59:13;;;;;;;3.55;2.92;;;27.90;54.60;;;;;;6250887;22;20031;-90
2021/05/27 11:01:41;;;;;;;3.72;3.42;;;28.00;54.50;;;;;;6250360;22;20023;-90
2021/05/27 11:04:36;;;;;;;3.80;3.50;;;28.10;54.50;;;;;;6276540;22;20000;-91
2021/05/27 11:07:16;;;;;;;3.40;3.10;;;28.10;53.50;;;;;;6246198;22;20019;-92
2021/05/27 11:10:22;;;;;;;3.70;2.95;;;28.10;54.00;;;;;;6251592;22;20026;-92
2021/05/27 11:14:06;;;;;;;4.13;3.80;;;28.10;53.90;;;;;;6249453;22;20066;-92
2021/05/27 11:16:54;;;;;;;3.50;3.20;;;28.10;53.40;;;;;;6265698;22;20019;-93
2021/05/27 11:20:06;;;;;;;;;;;;;;;;;;;;;
2021/05/27 11:23:08;;;;;;;;;;;;;;;;;;;;;
2021/05/27 11:26:15;;;;;;;;;;;;;;;;;;;;;
2021/05/27 11:46:40;;;;;;;3.83;3.03;;;26.40;55.00;;;;;;6014360;23;20099;-96
2021/05/27 11:57:20;;;;;;;;;;;;;;;;;;;;;
2021/05/27 13:47:35;;;;;;;5.13;4.60;;;25.40;68.30;;;;;;6282236;22;20427;-90
2021/05/27 13:50:29;;;;;;;4.90;4.47;;;25.30;67.30;;;;;;6238822;22;20015;-90
2021/05/27 13:56:31;;;;;;;;;;;;;;;;;;;;;
2021/05/27 13:59:54;;;;;;;3.72;3.42;;;26.90;66.90;;;;;;6157332;23;20472;-89
2021/05/27 14:02:39;;;;;;;4.55;3.92;;;27.90;65.60;;;;;;6155332;23;20088;-90
2021/05/27 14:05:45;;;;;;;5.07;3.75;;;28.90;62.10;;;;;;6129990;23;20425;-89
2021/05/27 14:08:37;;;;;;;3.72;3.42;;;29.80;62.50;;;;;;6129943;23;20005;-88
2021/05/27 14:11:44;;;;;;;;;;;;;;;;;;;;;
2021/05/27 14:14:21;;;;;;;6.60;3.72;;;30.50;57.60;;;;;;6096442;23;20487;-89
2021/05/27 14:17:39;;;;;;;8.20;3.83;;;30.40;58.10;;;;;;6128862;23;20006;-88
2021/05/27 14:21:19;;;;;;;;;;;;;;;;;;;;;
2021/05/27 14:24:23;;;;;;;5.38;4.72;;;29.60;54.90;;;;;;6152791;23;20429;-89
2021/05/27 14:27:19;;;;;;;5.90;4.95;;;28.80;55.80;;;;;;6131482;23;20009;-93
2021/05/27 14:30:01;;;;;;;6.90;5.38;;;28.10;56.90;;;;;;6186129;22;20015;-89
2021/05/27 14:32:37;;;;;;;5.75;5.15;;;27.50;58.10;;;;;;6253319;22;20000;-91
2021/05/27 14:35:59;;;;;;;;;;;;;;;;;;;;;
2021/05/27 14:50:01;;;;;;;;;;;;;;;;;;;;;
2021/05/27 14:56:39;;;;;;;5.38;4.05;;;24.60;66.00;;;;;;6208379;22;20019;-94
2021/05/27 15:02:51;;;;;;;6.03;5.45;;;24.30;66.90;;;;;;6134832;23;20053;-89
2021/05/27 15:09:53;;;;;;;7.45;6.72;;;24.10;71.90;;;;;;6224176;22;20003;-92
2021/05/27 15:13:09;;;;;;;6.95;6.25;;;24.10;74.40;;;;;;6279540;22;20008;-92
2021/05/27 15:16:28;;;;;;;;;;;;;;;;;;;;;
2021/05/27 15:37:27;;;;;;;;;;;;;;;;;;;;;
2021/05/27 15:47:26;;;;;;;4.07;3.67;;;26.20;64.70;;;;;;5772849;24;20019;-91
2021/05/27 15:51:00;;;;;;;5.20;4.15;;;26.30;64.30;;;;;;5794788;24;20027;-89
2021/05/27 15:53:56;;;;;;;4.10;3.70;;;26.60;64.10;;;;;;5876067;24;20440;-92
2021/05/27 16:03:11;;;;;;;4.50;3.28;;;26.20;62.80;;;;;;6010828;23;20034;-90
2021/05/27 16:27:30;;;;;;;5.53;4.28;;;23.60;72.30;;;;;;5993444;23;20015;-94
2021/05/27 16:30:21;;;;;;;;;;;;;;;;;;;;;
2021/05/27 16:40:10;;;;;;;;;;;;;;;;;;;;;
2021/05/27 16:46:09;;;;;;;5.10;4.10;;;22.30;76.10;;;;;;6136506;23;20017;-94
2021/05/27 16:48:48;;;;;;;;;;;;;;;;;;;;;
2021/05/27 16:51:14;;;;;;;4.90;4.43;;;22.00;78.20;;;;;;6173853;23;19997;-93
2021/05/27 16:53:40;;;;;;;5.40;3.90;;;21.90;78.20;;;;;;6249834;22;20128;-91
2021/05/27 16:56:07;;;;;;;5.53;4.70;;;21.80;78.60;;;;;;6269175;22;20439;-93
2021/05/27 16:58:36;;;;;;;4.90;3.85;;;21.70;78.90;;;;;;6284952;22;20000;-92
2021/05/27 17:01:02;;;;;;;4.95;4.45;;;21.70;78.60;;;;;;6256344;22;20003;-95
2021/05/27 17:03:30;;;;;;;4.10;3.38;;;21.60;78.90;;;;;;6255156;22;20049;-94
2021/05/27 17:06:06;;;;;;;4.05;3.65;;;21.60;78.80;;;;;;6280891;22;20418;-91
2021/05/27 17:16:45;;;;;;;;;;;;;;;;;;;;;
2021/05/27 17:50:48;;;;;;;4.03;3.20;;;20.70;80.80;;;;;;5459925;23;18349677;-95
2021/05/27 17:56:21;;;;;;;4.25;3.85;;;20.50;81.40;;;;;;6235437;23;20083;-89
2021/05/27 17:58:47;;;;;;;5.35;3.20;;;20.50;81.60;;;;;;6255875;22;20027;-88
2021/05/27 18:01:12;;;;;;;3.70;3.40;;;20.40;82.00;;;;;;6320020;22;20002;-88
2021/05/27 18:03:39;;;;;;;4.00;3.60;;;20.40;82.30;;;;;;6348099;22;20003;-88
2021/05/27 18:06:06;;;;;;;3.90;3.50;;;20.30;82.60;;;;;;6347423;22;20384;-89
2021/05/27 18:08:32;;;;;;;4.72;3.55;;;20.30;82.80;;;;;;6320569;22;19995;-88
2021/05/27 18:10:59;;;;;;;4.90;4.18;;;20.30;82.90;;;;;;6320590;22;19998;-89
2021/05/27 18:13:25;;;;;;;5.90;4.43;;;20.30;83.30;;;;;;6325029;22;20086;-89
2021/05/27 18:15:51;;;;;;;4.88;4.10;;;20.20;83.60;;;;;;6324341;22;20007;-88
2021/05/27 18:18:17;;;;;;;5.35;4.85;;;20.20;83.60;;;;;;6351034;22;20003;-89
2021/05/27 18:20:42;;;;;;;4.20;3.80;;;20.20;84.30;;;;;;6329470;22;20003;-89
2021/05/27 18:23:08;;;;;;;5.22;4.72;;;20.20;84.20;;;;;;6329116;22;19995;-88
2021/05/27 18:25:35;;;;;;;4.80;4.30;;;20.10;84.30;;;;;;6327150;22;19999;-88
2021/05/27 18:28:02;;;;;;;4.72;4.25;;;20.10;84.60;;;;;;6322651;22;19999;-89
2021/05/27 18:30:29;;;;;;;4.63;3.97;;;20.10;84.70;;;;;;6321649;22;20003;-88
2021/05/27 18:32:54;;;;;;;5.07;4.45;;;20.10;85.00;;;;;;6321093;22;20361;-88
2021/05/27 18:35:20;;;;;;;6.05;4.18;;;20.00;85.10;;;;;;6320724;22;19999;-88
2021/05/27 18:37:48;;;;;;;5.00;4.50;;;20.00;84.80;;;;;;6320882;22;20003;-87
2021/05/27 18:40:16;;;;;;;5.57;4.43;;;20.00;85.00;;;;;;6331586;22;20006;-87
2021/05/27 18:42:42;;;;;;;5.07;4.55;;;20.00;85.40;;;;;;6334381;22;20006;-88
2021/05/27 18:45:11;;;;;;;5.00;4.50;;;19.90;85.50;;;;;;6308497;22;20003;-87
2021/05/27 18:47:36;;;;;;;5.32;4.82;;;19.90;85.30;;;;;;6297008;22;20007;-88
2021/05/27 18:50:04;;;;;;;4.93;4.03;;;19.90;85.50;;;;;;6284619;22;20404;-89
2021/05/27 18:52:30;;;;;;;5.40;4.35;;;19.80;85.60;;;;;;6277404;22;19995;-88
2021/05/27 18:54:56;;;;;;;4.95;3.90;;;19.80;85.80;;;;;;6277264;22;20014;-89
2021/05/27 18:57:21;;;;;;;4.90;4.40;;;19.80;85.90;;;;;;6278592;22;20011;-89
2021/05/27 18:59:47;;;;;;;4.40;4.00;;;19.70;85.90;;;;;;6277599;22;20419;-88